Terminal Aerodrome Forecast
Issued by NWS

Home | Current Version | Previous Version | Text Only | Print | Product List | Glossary On
Versions: 1 2 3 4 5 6 7 8 9 10 11 12 13 14 15 16 17 18 19 20 21 22
000
FTUS43 KGRR 011720
TAFAZO
TAF
KAZO 011720Z 0118/0218 25008KT P6SM SCT120
     FM020400 19015G23KT P6SM BKN250
     FM021100 19014G22KT P6SM BKN070
     FM021400 20015G25KT 5SM -SHRA BKN050 PROB30 0215/0218 3SM -TSRA
      OVC025CB=

USA.gov is the U.S. government's official web portal to all federal, state and local government web resources and services.